Time;durP1;ratioP1;P1;durP2;ratioP2;P2;SDS_P1;SDS_P2;PMS_P1;PMS_P2;Temp;Humidity;BMP_temperature;BMP_pressure;BME280_temperature;BME280_humidity;BME280_pressure;Samples;Min_cycle;Max_cycle;Signal;HPM_P1;HPM_P2
2024/04/14 00:01:32;;;;;;;;;;;18.30;99.90;;;18.64;54.91;100739.03;5489905;26;19936;-79
2024/04/14 00:03:58;;;;;;;;;;;18.30;99.90;;;18.51;51.96;100740.25;5490114;26;19928;-79
2024/04/14 00:06:27;;;;;;;;;;;18.20;99.90;;;18.44;49.77;100741.53;5489863;26;19934;-79
2024/04/14 00:08:53;;;;;;;;;;;18.10;99.90;;;18.36;49.79;100748.22;5489924;26;19928;-79
2024/04/14 00:11:22;;;;;;;;;;;18.00;99.90;;;18.39;48.86;100753.09;5489812;26;19932;-79
2024/04/14 00:13:51;;;;;;;;;;;18.00;99.90;;;18.37;48.33;100751.75;5489623;26;19939;-79
2024/04/14 00:16:20;;;;;;;;;;;18.00;99.90;;;18.41;50.54;100744.75;5491627;26;19931;-79
2024/04/14 00:18:46;;;;;;;;;;;18.00;99.90;;;18.40;49.05;100754.75;5459140;26;19928;-79
2024/04/14 00:21:15;;;;;;;;;;;18.00;99.90;;;18.32;48.32;100752.50;5491415;26;19935;-79
2024/04/14 00:23:44;;;;;;;;;;;18.00;99.90;;;18.33;48.22;100754.13;5491544;26;19932;-79
2024/04/14 00:26:13;;;;;;;;;;;17.90;99.90;;;18.22;45.38;100757.81;5475046;26;19935;-79
2024/04/14 00:28:40;;;;;;;;;;;17.90;99.90;;;18.13;45.14;100759.31;5496265;26;19931;-79
2024/04/14 00:31:11;;;;;;;;;;;17.80;99.90;;;18.09;44.43;100750.09;5526357;26;19996;-79
2024/04/14 00:33:37;;;;;;;;;;;17.80;99.90;;;17.93;43.75;100757.22;5528566;25;19927;-79
2024/04/14 00:36:08;;;;;;;;;;;17.60;99.90;;;17.93;43.70;100758.03;5495427;26;19927;-79
2024/04/14 00:38:34;;;;;;;;;;;17.60;99.90;;;17.94;45.18;100756.97;5526333;26;20386;-79
2024/04/14 00:41:04;;;;;;;;;;;17.60;99.90;;;17.90;43.49;100758.53;5527971;26;19973;-79
2024/04/14 00:43:30;;;;;;;;;;;17.50;99.90;;;17.93;44.69;100763.44;5495193;26;19927;-79
2024/04/14 00:46:00;;;;;;;;;;;17.50;99.90;;;17.92;44.06;100769.91;5526130;26;19933;-79
2024/04/14 00:48:28;;;;;;;;;;;17.40;99.90;;;17.96;44.87;100767.53;5525756;26;19927;-79
2024/04/14 00:50:57;;;;;;;;;;;17.40;99.90;;;17.99;44.63;100767.00;5525768;26;19935;-79
2024/04/14 00:53:24;;;;;;;;;;;17.40;99.90;;;17.92;43.89;100772.59;5525900;26;19939;-79
2024/04/14 00:55:53;;;;;;;;;;;17.40;99.90;;;17.92;44.40;100777.19;5463883;26;19934;-79
2024/04/14 00:58:20;;;;;;;;;;;17.40;99.90;;;17.87;43.57;100775.25;5527413;25;19927;-79
2024/04/14 01:00:49;;;;;;;;;;;17.30;99.90;;;17.85;44.20;100784.63;5527547;25;19938;-79
2024/04/14 01:03:15;;;;;;;;;;;17.30;99.90;;;17.84;43.85;100789.22;5527518;26;19972;-79
2024/04/14 01:05:46;;;;;;;;;;;17.30;99.90;;;17.83;43.61;100773.28;5528297;26;20374;-79
2024/04/14 01:08:12;;;;;;;;;;;17.20;99.90;;;17.77;43.07;100780.53;5531361;25;19935;-79
2024/04/14 01:10:42;;;;;;;;;;;17.10;99.90;;;17.77;42.89;100788.63;5531587;25;20359;-79
2024/04/14 01:13:08;;;;;;;;;;;17.10;99.90;;;17.74;44.55;100786.41;5529600;26;20000;-79
2024/04/14 01:15:37;;;;;;;;;;;17.10;99.90;;;17.68;43.39;100790.09;5529785;26;19938;-79
2024/04/14 01:18:03;;;;;;;;;;;17.00;99.90;;;17.65;44.09;100788.69;5531019;25;20284;-79
2024/04/14 01:20:34;;;;;;;;;;;17.00;99.90;;;17.67;44.96;100794.66;5531209;26;19927;-79
2024/04/14 01:23:03;;;;;;;;;;;17.00;99.90;;;17.67;45.14;100800.06;5529075;26;19927;-79
2024/04/14 01:25:35;;;;;;;;;;;17.00;99.90;;;17.66;44.91;100801.09;5524149;26;19927;-79
2024/04/14 01:28:01;;;;;;;;;;;16.90;99.90;;;17.60;45.10;100804.00;5492374;26;20262;-79
2024/04/14 01:30:30;;;;;;;;;;;16.90;99.90;;;17.58;45.76;100803.44;5494241;26;19928;-79
2024/04/14 01:32:56;;;;;;;;;;;16.90;99.90;;;17.55;45.76;100806.63;5494438;26;19928;-79
2024/04/14 01:35:25;;;;;;;;;;;16.80;99.90;;;17.41;44.98;100809.66;5462031;26;20300;-79
2024/04/14 01:37:51;;;;;;;;;;;16.80;99.90;;;17.34;44.70;100814.44;5492496;26;20367;-79
2024/04/14 01:40:20;;;;;;;;;;;16.70;99.90;;;17.35;45.44;100809.84;5461949;26;19928;-79
2024/04/14 01:42:49;;;;;;;;;;;16.70;99.90;;;17.34;45.55;100805.53;5492777;26;20012;-79
2024/04/14 01:45:18;;;;;;;;;;;16.70;99.90;;;17.35;46.69;100820.63;5492370;26;19928;-79
2024/04/14 01:47:44;;;;;;;;;;;16.70;99.90;;;17.37;46.92;100821.19;5494167;26;19928;-79
2024/04/14 01:50:13;;;;;;;;;;;16.70;99.90;;;17.33;46.32;100815.50;5492061;26;19972;-79
2024/04/14 01:52:39;;;;;;;;;;;16.60;99.90;;;17.31;46.64;100825.69;5491944;26;19932;-79
2024/04/14 01:55:09;;;;;;;;;;;16.60;99.90;;;17.24;45.74;100811.59;5494109;26;19928;-79
2024/04/14 01:57:35;;;;;;;;;;;16.50;99.90;;;17.22;46.31;100824.47;5431760;26;19928;-79
2024/04/14 02:00:08;;;;;;;;;;;16.50;99.90;;;17.20;46.80;100819.34;5493774;26;19931;-79
2024/04/14 02:02:40;;;;;;;;;;;16.50;99.90;;;17.18;46.66;100824.19;5494286;26;19971;-79
2024/04/14 02:05:09;;;;;;;;;;;16.50;99.90;;;17.14;47.30;100823.03;5461325;26;19961;-79
2024/04/14 02:07:36;;;;;;;;;;;16.50;99.90;;;17.14;47.62;100827.59;5494053;26;19963;-79
2024/04/14 02:10:05;;;;;;;;;;;16.50;99.90;;;17.14;48.29;100823.03;5492071;26;20370;-79
2024/04/14 02:12:31;;;;;;;;;;;16.50;99.90;;;17.16;48.22;100830.84;5493854;26;19928;-79
2024/04/14 02:15:00;;;;;;;;;;;16.50;99.90;;;17.14;47.33;100841.09;5460952;26;19935;-79
2024/04/14 02:17:29;;;;;;;;;;;16.40;99.90;;;17.10;47.34;100834.53;5493685;26;19927;-79
2024/04/14 02:19:58;;;;;;;;;;;16.40;99.90;;;17.04;46.87;100838.22;5493352;26;19996;-79
2024/04/14 02:22:24;;;;;;;;;;;16.40;99.90;;;17.04;47.60;100840.91;5493359;26;19954;-79
2024/04/14 02:24:53;;;;;;;;;;;16.40;99.90;;;17.03;47.97;100839.25;5491241;26;20381;-79
2024/04/14 02:27:19;;;;;;;;;;;16.40;99.90;;;17.03;48.05;100836.56;5524942;26;19935;-79
2024/04/14 02:29:48;;;;;;;;;;;16.40;99.90;;;17.04;47.54;100839.03;5530698;25;19933;-79
2024/04/14 02:32:14;;;;;;;;;;;16.40;99.90;;;17.04;47.96;100843.63;5529114;26;19928;-79
2024/04/14 02:34:45;;;;;;;;;;;16.40;99.90;;;17.02;48.15;100843.84;5530553;25;19935;-79
2024/04/14 02:37:12;;;;;;;;;;;16.40;99.90;;;16.95;47.76;100844.00;5530725;25;19967;-79
2024/04/14 02:39:40;;;;;;;;;;;16.30;99.90;;;16.92;48.37;100849.88;5530503;26;19932;-79
2024/04/14 02:42:07;;;;;;;;;;;16.30;99.90;;;16.93;48.69;100854.22;5498316;26;19935;-79
2024/04/14 02:44:35;;;;;;;;;;;16.30;99.90;;;16.93;48.63;100850.69;5528365;26;20256;-79
2024/04/14 02:47:02;;;;;;;;;;;16.20;99.90;;;16.89;48.57;100847.69;5528488;26;20004;-79
2024/04/14 02:49:31;;;;;;;;;;;16.20;99.90;;;16.88;48.70;100848.72;5529694;25;19928;-79
2024/04/14 02:52:00;;;;;;;;;;;16.20;99.90;;;16.87;48.90;100851.69;5528199;26;19934;-79
2024/04/14 02:54:29;;;;;;;;;;;16.10;99.90;;;16.84;49.44;100849.47;5530418;26;19928;-79
2024/04/14 02:56:58;;;;;;;;;;;16.10;99.90;;;16.81;49.57;100858.84;5530216;26;20371;-79
2024/04/14 02:59:26;;;;;;;;;;;16.00;99.90;;;16.78;49.75;100853.94;5528236;26;20003;-79
2024/04/14 03:01:53;;;;;;;;;;;16.00;99.90;;;16.75;49.72;100857.13;5530238;26;19939;-79
2024/04/14 03:04:21;;;;;;;;;;;16.00;99.90;;;16.69;49.95;100858.91;5527793;26;20371;-79
2024/04/14 03:06:47;;;;;;;;;;;16.00;99.90;;;16.67;49.84;100861.00;5530390;26;19935;-79
2024/04/14 03:09:19;;;;;;;;;;;16.00;99.90;;;16.64;49.62;100863.34;5528090;26;19928;-79
2024/04/14 03:11:45;;;;;;;;;;;15.90;99.90;;;16.62;50.49;100858.22;5498145;26;19935;-79
2024/04/14 03:14:14;;;;;;;;;;;15.90;99.90;;;16.63;50.04;100859.84;5528178;26;19931;-79
2024/04/14 03:16:40;;;;;;;;;;;15.90;99.90;;;16.63;50.62;100867.09;5528525;26;19934;-79
2024/04/14 03:19:09;;;;;;;;;;;15.90;99.90;;;16.61;50.43;100871.94;5527964;26;19927;-79
2024/04/14 03:21:35;;;;;;;;;;;15.90;99.90;;;16.61;50.72;100871.94;5527494;26;19996;-79
2024/04/14 03:24:04;;;;;;;;;;;15.90;99.90;;;16.61;50.82;100861.97;5527482;26;19939;-79
2024/04/14 03:26:33;;;;;;;;;;;15.90;99.90;;;16.60;50.44;100870.31;5508682;26;19936;-79
2024/04/14 03:29:03;;;;;;;;;;;15.90;99.90;;;16.60;50.16;100867.59;5491733;26;19940;-79
2024/04/14 03:31:29;;;;;;;;;;;15.90;99.90;;;16.58;49.83;100864.31;5490845;26;20004;-79
2024/04/14 03:33:58;;;;;;;;;;;15.90;99.90;;;16.58;50.35;100873.22;5490599;26;19935;-79
2024/04/14 03:36:24;;;;;;;;;;;15.80;99.90;;;16.57;50.36;100865.38;5490559;26;19928;-79
2024/04/14 03:38:53;;;;;;;;;;;15.80;99.90;;;16.56;50.69;100869.16;5492136;26;19935;-79
2024/04/14 03:41:24;;;;;;;;;;;15.80;99.90;;;16.55;50.47;100871.03;5459826;26;19995;-79
2024/04/14 03:43:56;;;;;;;;;;;15.80;99.90;;;16.52;51.02;100868.81;5490380;26;19959;-79
2024/04/14 03:46:26;;;;;;;;;;;15.80;99.90;;;16.52;51.08;100866.09;5492133;26;19927;-79
2024/04/14 03:48:55;;;;;;;;;;;15.80;99.90;;;16.53;51.10;100869.63;5492266;26;20077;-79
2024/04/14 03:51:23;;;;;;;;;;;15.80;99.90;;;16.48;51.08;100863.06;5492200;26;19935;-79
2024/04/14 03:53:52;;;;;;;;;;;15.80;99.90;;;16.44;50.89;100864.59;5491706;26;19935;-79
2024/04/14 03:56:18;;;;;;;;;;;15.80;99.90;;;16.41;51.34;100859.72;5459665;26;19938;-79
2024/04/14 03:58:49;;;;;;;;;;;15.80;99.90;;;16.43;51.53;100867.53;5459638;26;19996;-79
2024/04/14 04:01:18;;;;;;;;;;;15.80;99.90;;;16.43;51.64;100868.34;5491561;26;19928;-79
2024/04/14 04:03:46;;;;;;;;;;;15.80;99.90;;;16.43;51.98;100871.06;5492228;26;19935;-79
2024/04/14 04:06:12;;;;;;;;;;;15.70;99.90;;;16.35;51.67;100868.75;5492548;26;19935;-79
2024/04/14 04:08:44;;;;;;;;;;;15.70;99.90;;;16.33;52.01;100873.56;5491164;26;20444;-79
2024/04/14 04:11:12;;;;;;;;;;;15.70;99.90;;;16.37;52.08;100876.59;5490233;26;19938;-79
2024/04/14 04:13:41;;;;;;;;;;;15.70;99.90;;;16.36;52.57;100881.16;5490182;26;19977;-78
2024/04/14 04:16:07;;;;;;;;;;;15.70;99.90;;;16.35;52.45;100873.34;5492013;26;19928;-79
2024/04/14 04:18:39;;;;;;;;;;;15.70;99.90;;;16.30;52.54;100876.75;5491698;26;19956;-79
2024/04/14 04:21:06;;;;;;;;;;;15.60;99.90;;;16.30;52.95;100890.19;5492178;26;19928;-79
2024/04/14 04:23:35;;;;;;;;;;;15.60;99.90;;;16.31;53.18;100885.63;5489841;26;20387;-79
2024/04/14 04:26:01;;;;;;;;;;;15.60;99.90;;;16.29;52.94;100891.22;5502691;26;19927;-79
2024/04/14 04:28:30;;;;;;;;;;;15.60;99.90;;;16.29;53.18;100895.78;5526788;26;20389;-79
2024/04/14 04:30:56;;;;;;;;;;;15.60;99.90;;;16.24;53.41;100896.50;5528384;25;19939;-79
2024/04/14 04:33:26;;;;;;;;;;;15.60;99.90;;;16.27;53.44;100896.03;5526698;26;20355;-79
2024/04/14 04:35:56;;;;;;;;;;;15.70;99.90;;;16.19;54.32;100902.59;5526945;26;19939;-79
2024/04/14 04:38:26;;;;;;;;;;;15.60;99.90;;;16.03;54.48;100899.84;5525611;26;19927;-79
2024/04/14 04:40:53;;;;;;;;;;;15.50;99.90;;;16.09;54.07;100904.28;5527091;26;20041;-79
2024/04/14 04:43:24;;;;;;;;;;;15.50;99.90;;;16.13;54.30;100903.56;5528002;26;19928;-79
2024/04/14 04:45:52;;;;;;;;;;;15.50;99.90;;;16.15;54.39;100909.53;5527902;26;19943;-79
2024/04/14 04:48:22;;;;;;;;;;;15.50;99.90;;;16.07;54.47;100909.09;5528318;26;19935;-79
2024/04/14 04:50:48;;;;;;;;;;;15.50;99.90;;;16.03;54.55;100907.91;5528700;25;19934;-79
2024/04/14 04:53:20;;;;;;;;;;;15.50;99.90;;;16.08;54.75;100911.53;5464266;26;19937;-79
2024/04/14 04:55:47;;;;;;;;;;;15.50;99.90;;;16.10;55.30;100913.97;5436726;26;19928;-79
2024/04/14 04:58:17;;;;;;;;;;;15.50;99.90;;;16.10;55.25;100906.72;5526370;26;19938;-79
2024/04/14 05:00:51;;;;;;;;;;;15.50;99.90;;;16.10;55.19;100909.41;5528235;25;19927;-79
2024/04/14 05:03:20;;;;;;;;;;;15.50;99.90;;;16.10;54.95;100913.97;5529321;25;19936;-79
2024/04/14 05:05:54;;;;;;;;;;;15.50;99.90;;;16.00;55.26;100919.94;5528674;25;19931;-79
2024/04/14 05:08:27;;;;;;;;;;;15.40;99.90;;;15.91;55.23;100919.50;5528520;25;20340;-79
2024/04/14 05:10:55;;;;;;;;;;;15.40;99.90;;;15.95;55.65;100922.53;5526716;26;19934;-79
2024/04/14 05:13:24;;;;;;;;;;;15.40;99.90;;;15.99;55.61;100928.28;5526066;26;19939;-79
2024/04/14 05:15:51;;;;;;;;;;;15.40;99.90;;;16.03;55.84;100921.38;5528011;25;19928;-79
2024/04/14 05:18:19;;;;;;;;;;;15.50;99.90;;;16.06;55.88;100937.06;5526110;26;19986;-79
2024/04/14 05:20:46;;;;;;;;;;;15.50;99.90;;;16.07;55.60;100941.38;5528253;25;19927;-79
2024/04/14 05:23:15;;;;;;;;;;;15.50;99.90;;;16.02;55.94;100936.69;5529027;25;19931;-81
2024/04/14 05:25:48;;;;;;;;;;;15.50;99.90;;;16.02;56.07;100941.25;5526783;26;19927;-81
2024/04/14 05:28:16;;;;;;;;;;;15.50;99.90;;;16.01;56.02;100939.63;5529852;26;20457;-82
2024/04/14 05:30:43;;;;;;;;;;;15.40;99.90;;;16.03;56.30;100946.41;5535028;25;20377;-84
2024/04/14 05:33:12;;;;;;;;;;;15.50;99.90;;;15.93;56.15;100949.69;5530826;26;19935;-84
2024/04/14 05:35:44;;;;;;;;;;;15.40;99.90;;;15.92;56.13;100941.84;5529789;26;19934;-84
2024/04/14 05:38:13;;;;;;;;;;;15.40;99.90;;;15.92;56.56;100948.03;5500804;26;19928;-84
2024/04/14 05:40:40;;;;;;;;;;;15.40;99.90;;;15.87;56.53;100947.94;5502770;26;19947;-83
2024/04/14 05:43:11;;;;;;;;;;;15.30;99.90;;;15.88;56.60;100944.19;5531714;26;19927;-84
2024/04/14 05:45:38;;;;;;;;;;;15.40;99.90;;;15.91;56.47;100943.72;5531773;26;19934;-84
2024/04/14 05:48:07;;;;;;;;;;;15.40;99.90;;;15.90;56.79;100939.38;5536229;25;19931;-84
2024/04/14 05:50:33;;;;;;;;;;;15.40;99.90;;;15.98;57.19;100934.72;5533287;26;19943;-84
2024/04/14 05:53:03;;;;;;;;;;;15.50;99.90;;;16.02;57.01;100946.66;5537807;26;19927;-84
2024/04/14 05:55:30;;;;;;;;;;;15.50;99.90;;;16.04;56.96;100947.22;5505955;26;19939;-84
2024/04/14 05:57:59;;;;;;;;;;;15.50;99.90;;;16.02;56.85;100955.53;5535559;26;19942;-82
2024/04/14 06:00:28;;;;;;;;;;;15.50;99.90;;;16.01;57.35;100953.91;5501676;26;19927;-83
2024/04/14 06:02:59;;;;;;;;;;;15.50;99.90;;;16.03;57.58;100961.72;5535955;25;19928;-84
2024/04/14 06:05:26;;;;;;;;;;;15.50;99.90;;;16.09;57.66;100958.09;5532781;26;20373;-83
2024/04/14 06:07:55;;;;;;;;;;;15.60;99.90;;;16.10;57.39;100951.66;5534186;25;19959;-82
2024/04/14 06:10:22;;;;;;;;;;;15.60;99.90;;;16.09;57.54;100956.22;5531367;26;20398;-83
2024/04/14 06:12:51;;;;;;;;;;;15.60;99.90;;;16.11;57.70;100956.81;5530812;25;19932;-83
2024/04/14 06:15:17;;;;;;;;;;;15.60;99.90;;;16.09;57.52;100966.97;5528150;26;19927;-83
2024/04/14 06:17:49;;;;;;;;;;;15.60;99.90;;;16.00;57.60;100952.25;5529592;26;19934;-83
2024/04/14 06:20:16;;;;;;;;;;;15.50;99.90;;;16.06;57.50;100956.69;5497736;26;19927;-83
2024/04/14 06:22:45;;;;;;;;;;;15.60;99.90;;;16.10;57.41;100960.53;5528144;26;19927;-82
2024/04/14 06:25:14;;;;;;;;;;;15.60;99.90;;;16.09;56.72;100958.09;5499027;26;19951;-81
2024/04/14 06:27:43;;;;;;;;;;;15.60;99.90;;;15.88;57.74;100960.31;5528571;26;19927;-82
2024/04/14 06:30:12;;;;;;;;;;;15.50;99.90;;;15.96;58.12;100968.06;5530627;26;19927;-81
2024/04/14 06:32:41;;;;;;;;;;;15.60;99.90;;;15.98;57.62;100967.00;5529737;25;19959;-81
2024/04/14 06:35:10;;;;;;;;;;;15.60;99.90;;;16.00;57.14;100967.56;5530013;25;19955;-83
2024/04/14 06:37:39;;;;;;;;;;;15.60;99.90;;;16.02;57.73;100965.47;5529201;26;19927;-83
2024/04/14 06:40:07;;;;;;;;;;;15.60;99.90;;;16.09;57.22;100968.84;5532225;26;19935;-83
2024/04/14 06:42:36;;;;;;;;;;;15.60;99.90;;;16.03;57.44;100964.41;5532975;25;19967;-83
2024/04/14 06:45:02;;;;;;;;;;;15.50;99.90;;;15.81;57.11;100967.72;5535310;25;19938;-83
2024/04/14 06:47:31;;;;;;;;;;;15.50;99.90;;;15.87;57.58;100979.41;5533403;26;19932;-83
2024/04/14 06:49:58;;;;;;;;;;;15.40;99.90;;;15.93;57.45;100981.16;5534235;26;19934;-83
2024/04/14 06:52:30;;;;;;;;;;;15.50;99.90;;;15.99;57.41;100982.06;5537533;25;19927;-82
2024/04/14 06:54:57;;;;;;;;;;;15.50;99.90;;;15.94;57.39;100986.28;5535858;26;19935;-83
2024/04/14 06:57:26;;;;;;;;;;;15.60;99.90;;;16.01;57.64;100986.19;5528809;26;19928;-84
2024/04/14 06:59:53;;;;;;;;;;;15.60;99.90;;;16.01;57.95;100980.81;5531429;25;19963;-84
2024/04/14 07:02:23;;;;;;;;;;;15.60;99.90;;;16.10;57.57;100984.75;5527688;26;19955;-84
2024/04/14 07:04:49;;;;;;;;;;;15.70;99.90;;;16.16;57.57;100980.31;5529772;26;19939;-83
2024/04/14 07:07:22;;;;;;;;;;;15.70;99.90;;;16.16;57.44;100986.53;5528580;26;19996;-84
2024/04/14 07:09:53;;;;;;;;;;;15.70;99.90;;;16.17;56.92;100974.69;5528068;26;19927;-84
2024/04/14 07:12:22;;;;;;;;;;;15.80;99.90;;;16.25;56.65;100986.16;5508161;26;20419;-84
2024/04/14 07:14:48;;;;;;;;;;;15.80;99.90;;;16.30;56.70;100989.78;5525817;25;20390;-84
2024/04/14 07:17:18;;;;;;;;;;;15.90;99.90;;;16.40;57.10;100987.31;5529568;26;20386;-83
2024/04/14 07:19:44;;;;;;;;;;;16.00;99.90;;;16.42;56.22;100985.19;5530672;26;19933;-84
2024/04/14 07:22:13;;;;;;;;;;;16.00;99.90;;;16.51;56.87;100985.66;5530310;25;20271;-84
2024/04/14 07:24:40;;;;;;;;;;;16.10;99.90;;;16.53;56.11;100983.53;5498849;26;20256;-83
2024/04/14 07:27:11;;;;;;;;;;;16.20;99.90;;;16.46;56.25;100975.59;5516155;26;20006;-83
2024/04/14 07:29:38;;;;;;;;;;;16.20;99.90;;;16.53;56.03;100982.72;5510380;26;19935;-86
2024/04/14 07:32:09;;;;;;;;;;;16.30;99.90;;;16.52;56.08;100989.16;5503660;26;19951;-83
2024/04/14 07:34:35;;;;;;;;;;;16.30;99.90;;;16.56;56.06;100982.25;5527752;26;20390;-83
2024/04/14 07:37:05;;;;;;;;;;;16.30;99.90;;;16.54;55.48;100989.72;5532512;25;19943;-83
2024/04/14 07:39:31;;;;;;;;;;;16.30;99.90;;;16.55;55.85;100991.38;5500449;26;20291;-84
2024/04/14 07:42:02;;;;;;;;;;;16.30;99.90;;;16.58;55.83;101005.16;5533948;26;19935;-84
2024/04/14 07:44:31;;;;;;;;;;;16.30;99.90;;;16.52;55.67;100998.06;5533064;25;19927;-84
2024/04/14 07:46:59;;;;;;;;;;;16.30;99.90;;;16.50;55.59;101000.19;5534550;26;20374;-84
2024/04/14 07:49:26;;;;;;;;;;;16.20;99.90;;;16.52;54.88;101002.63;5533291;26;19927;-84
2024/04/14 07:51:55;;;;;;;;;;;16.20;99.90;;;16.54;54.33;101004.00;5532829;25;19934;-84
2024/04/14 07:54:21;;;;;;;;;;;16.20;99.90;;;16.52;54.18;101013.38;5533351;25;20255;-84
2024/04/14 07:56:50;;;;;;;;;;;16.20;99.90;;;16.51;53.32;101017.97;5533449;25;19935;-84
2024/04/14 07:59:16;;;;;;;;;;;16.20;99.90;;;16.40;52.64;101018.81;5532621;25;19999;-84
2024/04/14 08:01:48;;;;;;;;;;;16.10;99.90;;;16.33;52.11;101021.59;5499066;26;19927;-84
2024/04/14 08:04:14;;;;;;;;;;;16.00;99.90;;;16.29;52.12;101025.00;5531220;26;20270;-84
2024/04/14 08:06:43;;;;;;;;;;;16.00;99.90;;;16.29;51.94;101014.22;5533720;25;19932;-84
2024/04/14 08:09:10;;;;;;;;;;;16.00;99.90;;;16.10;51.80;101017.03;5533548;25;19934;-84
2024/04/14 08:11:39;;;;;;;;;;;15.90;99.90;;;16.13;51.47;101021.97;5532137;26;19927;-84
2024/04/14 08:14:08;;;;;;;;;;;15.90;99.90;;;16.21;52.54;101020.81;5531553;26;20382;-84
2024/04/14 08:16:37;;;;;;;;;;;16.00;99.90;;;16.35;51.28;101032.16;5532799;26;20327;-84
2024/04/14 08:19:06;;;;;;;;;;;16.10;99.90;;;16.34;51.65;101028.63;5532261;26;19927;-84
2024/04/14 08:21:36;;;;;;;;;;;16.10;99.90;;;16.38;51.53;101028.97;5535164;25;19927;-84
2024/04/14 08:24:03;;;;;;;;;;;16.10;99.90;;;16.48;52.03;101031.88;5533335;25;19927;-84
2024/04/14 08:26:32;;;;;;;;;;;16.30;99.90;;;16.54;52.36;101036.31;5533973;26;19959;-84
2024/04/14 08:28:58;;;;;;;;;;;16.30;99.90;;;16.42;51.95;101038.22;5502406;26;19928;-84
2024/04/14 08:31:27;;;;;;;;;;;16.30;99.90;;;16.40;51.76;101037.66;5533852;26;19934;-84
2024/04/14 08:33:55;;;;;;;;;;;16.20;99.90;;;16.42;52.00;101036.34;5533940;25;19934;-85
2024/04/14 08:36:27;;;;;;;;;;;16.20;99.90;;;16.35;52.00;101037.53;5532557;26;19956;-84
2024/04/14 08:38:53;;;;;;;;;;;16.10;99.90;;;16.40;52.09;101043.03;5532584;26;20358;-84
2024/04/14 08:41:24;;;;;;;;;;;16.20;99.90;;;16.42;52.44;101036.34;5533538;25;19931;-84
2024/04/14 08:43:52;;;;;;;;;;;16.30;99.90;;;16.46;53.35;101037.50;5534150;25;19939;-84
2024/04/14 08:46:23;;;;;;;;;;;16.30;99.90;;;16.56;53.38;101041.50;5530694;26;19955;-84
2024/04/14 08:48:51;;;;;;;;;;;16.40;99.90;;;16.59;53.23;101039.16;5503386;26;20363;-84
2024/04/14 08:51:19;;;;;;;;;;;16.40;99.90;;;16.70;52.98;101038.28;5534207;26;20383;-84
2024/04/14 08:53:50;;;;;;;;;;;16.60;99.90;;;16.79;54.52;101046.88;5532457;26;19927;-84
2024/04/14 08:56:19;;;;;;;;;;;16.70;99.90;;;16.81;53.69;101038.53;5534676;26;19928;-84
2024/04/14 08:58:46;;;;;;;;;;;16.70;99.90;;;16.88;53.07;101041.91;5534167;25;20282;-84
2024/04/14 09:01:16;;;;;;;;;;;16.80;99.90;;;16.76;51.96;101046.50;5531907;26;19949;-84
2024/04/14 09:03:43;;;;;;;;;;;16.70;99.90;;;16.68;52.04;101037.69;5534119;26;20021;-84
2024/04/14 09:06:14;;;;;;;;;;;16.60;99.90;;;16.70;51.72;101042.88;5532033;26;19927;-85
2024/04/14 09:08:40;;;;;;;;;;;16.60;99.90;;;16.78;52.47;101039.00;5498633;26;19932;-84
2024/04/14 09:11:11;;;;;;;;;;;16.70;99.90;;;16.81;52.86;101049.31;5533226;26;19996;-84
2024/04/14 09:13:39;;;;;;;;;;;16.70;99.90;;;16.88;51.33;101055.38;5534111;25;19969;-84
2024/04/14 09:16:11;;;;;;;;;;;16.80;99.90;;;16.83;51.48;101039.09;5530395;26;19934;-84
2024/04/14 09:18:37;;;;;;;;;;;16.70;99.90;;;16.86;52.54;101036.75;5530635;26;19944;-84
2024/04/14 09:21:06;;;;;;;;;;;16.80;99.90;;;16.91;51.29;101044.13;5533603;26;19934;-84
2024/04/14 09:23:33;;;;;;;;;;;16.80;99.90;;;16.95;52.59;101053.38;5471627;26;19934;-84
2024/04/14 09:26:04;;;;;;;;;;;16.80;99.90;;;17.01;51.40;101048.91;5533635;26;19938;-84
2024/04/14 09:28:33;;;;;;;;;;;16.90;99.90;;;16.97;49.22;101045.84;5474511;26;19927;-84
2024/04/14 09:31:02;;;;;;;;;;;16.80;99.90;;;16.95;50.77;101040.72;5536877;25;19934;-84
2024/04/14 09:33:31;;;;;;;;;;;16.80;99.90;;;16.98;50.82;101042.94;5533155;26;19943;-84
2024/04/14 09:36:01;;;;;;;;;;;16.80;99.90;;;17.02;51.33;101053.22;5533864;26;19927;-84
2024/04/14 09:38:28;;;;;;;;;;;16.90;99.90;;;17.06;50.95;101043.59;5533165;25;20367;-85
2024/04/14 09:41:00;;;;;;;;;;;16.90;99.90;;;16.98;50.29;101034.00;5499238;26;20442;-84
2024/04/14 09:43:26;;;;;;;;;;;16.90;99.90;;;17.01;49.43;101046.22;5530424;25;19955;-87
2024/04/14 09:45:59;;;;;;;;;;;16.90;99.90;;;17.03;49.49;101053.00;5528375;26;19935;-87
2024/04/14 09:48:30;;;;;;;;;;;16.90;99.90;;;17.00;49.18;101056.16;5530564;25;20370;-88
2024/04/14 09:50:58;;;;;;;;;;;16.90;99.90;;;17.05;49.87;101061.66;5498194;26;19934;-88
2024/04/14 09:53:31;;;;;;;;;;;17.00;99.90;;;17.06;48.62;101051.69;5527964;26;19935;-88
2024/04/14 09:55:58;;;;;;;;;;;17.00;99.90;;;17.03;49.84;101049.47;5528350;26;20389;-88
2024/04/14 09:58:27;;;;;;;;;;;17.00;99.90;;;16.98;50.85;101045.63;5529636;25;19934;-88
2024/04/14 10:00:58;;;;;;;;;;;17.00;99.90;;;17.09;50.78;101048.53;5529435;25;19928;-88
2024/04/14 10:03:30;;;;;;;;;;;17.10;99.90;;;17.14;50.70;101052.13;5530281;25;19927;-88
2024/04/14 10:05:57;;;;;;;;;;;17.10;99.90;;;17.17;49.75;101048.13;5465797;26;19934;-89
2024/04/14 10:08:27;;;;;;;;;;;17.20;99.90;;;17.25;50.78;101043.19;5527967;26;19928;-88
2024/04/14 10:10:56;;;;;;;;;;;17.30;99.90;;;17.29;50.73;101043.53;5498248;26;19935;-88
2024/04/14 10:13:23;;;;;;;;;;;17.40;99.90;;;17.33;50.10;101049.25;5529738;25;19927;-87
2024/04/14 10:16:02;;;;;;;;;;;17.30;99.90;;;17.32;51.02;101050.28;5498722;26;20291;-87
2024/04/14 10:18:33;;;;;;;;;;;17.30;99.90;;;17.29;48.76;101050.78;5531533;26;20308;-86
2024/04/14 10:21:05;;;;;;;;;;;17.30;99.90;;;17.30;48.97;101052.44;5533782;26;19972;-86
2024/04/14 10:23:31;;;;;;;;;;;17.30;99.90;;;17.23;49.16;101053.41;5533442;26;19972;-86
2024/04/14 10:26:01;;;;;;;;;;;17.20;99.90;;;17.22;49.20;101057.13;5529631;25;19938;-86
2024/04/14 10:28:27;;;;;;;;;;;17.10;99.90;;;17.21;49.20;101057.38;5494514;26;20374;-84
2024/04/14 10:31:05;;;;;;;;;;;17.10;99.90;;;17.09;47.93;101056.63;5533624;25;19934;-85
2024/04/14 10:33:32;;;;;;;;;;;17.00;99.90;;;17.05;49.86;101058.16;5529489;26;20371;-86
2024/04/14 10:36:05;;;;;;;;;;;16.90;99.90;;;16.90;48.79;101050.56;5529988;26;19953;-85
2024/04/14 10:38:32;;;;;;;;;;;16.80;99.90;;;16.94;48.30;101057.94;5501182;26;19939;-85
2024/04/14 10:41:01;;;;;;;;;;;16.80;99.90;;;16.89;48.73;101063.25;5532216;26;19927;-83
2024/04/14 10:43:27;;;;;;;;;;;16.80;99.90;;;16.89;47.55;101055.16;5533657;26;20020;-83
2024/04/14 10:46:01;;;;;;;;;;;16.80;99.90;;;16.89;47.82;101049.75;5534770;26;19934;-87
2024/04/14 10:48:31;;;;;;;;;;;16.80;99.90;;;17.02;48.40;101055.91;5528118;26;19939;-87
2024/04/14 10:51:02;;;;;;;;;;;16.90;99.90;;;16.99;45.69;101049.97;5527659;26;19928;-88
2024/04/14 10:53:33;;;;;;;;;;;16.90;99.90;;;16.91;48.77;101057.59;5527541;26;19928;-87
2024/04/14 10:56:02;;;;;;;;;;;16.90;99.90;;;16.95;48.65;101047.97;5529524;25;19928;-86
2024/04/14 10:58:30;;;;;;;;;;;16.90;99.90;;;16.99;46.06;101052.66;5526752;25;19927;-86
2024/04/14 11:01:00;;;;;;;;;;;17.00;99.90;;;17.02;45.56;101055.91;5497041;26;19931;-86
2024/04/14 11:03:27;;;;;;;;;;;16.90;99.90;;;17.08;44.11;101049.56;5533247;26;19955;-85
2024/04/14 11:06:01;;;;;;;;;;;17.00;99.90;;;17.13;44.60;101052.34;5533036;26;19927;-85
2024/04/14 11:08:28;;;;;;;;;;;17.00;99.90;;;17.09;45.54;101062.00;5529686;26;19928;-85
2024/04/14 11:10:57;;;;;;;;;;;17.00;99.90;;;17.09;45.20;101051.22;5533823;26;20378;-86
2024/04/14 11:13:27;;;;;;;;;;;17.00;99.90;;;17.10;45.61;101042.88;5521476;25;19939;-85
2024/04/14 11:15:58;;;;;;;;;;;17.00;99.90;;;17.13;44.70;101041.56;5494715;26;20264;-86